createdAt,value
2019-05-30T00:01:32.408Z,101718.80
2019-05-30T00:04:03.268Z,101723.89
2019-05-30T00:06:35.589Z,101721.34
2019-05-30T00:09:18.495Z,101726.53
2019-05-30T00:11:54.709Z,101730.98
2019-05-30T00:14:25.417Z,101728.40
2019-05-30T00:16:56.771Z,101731.58
2019-05-30T00:19:26.974Z,101735.30
2019-05-30T00:21:58.682Z,101739.67
2019-05-30T00:24:32.081Z,101740.67
2019-05-30T00:27:02.591Z,101741.84
2019-05-30T00:29:33.260Z,101734.75
2019-05-30T00:32:04.349Z,101734.66
2019-05-30T00:34:39.965Z,101743.34
2019-05-30T00:37:15.106Z,101736.66
2019-05-30T00:39:49.063Z,101738.61
2019-05-30T00:42:19.297Z,101735.52
2019-05-30T00:44:49.460Z,101733.15
2019-05-30T00:47:27.122Z,101739.33
2019-05-30T00:50:00.693Z,101731.78
2019-05-30T00:52:31.281Z,101736.60
2019-05-30T00:55:04.865Z,101732.78
2019-05-30T00:57:35.276Z,101734.45
2019-05-30T01:00:07.128Z,101734.45
2019-05-30T01:02:37.816Z,101731.73
2019-05-30T01:05:08.370Z,101731.64
2019-05-30T01:07:38.570Z,101735.00
2019-05-30T01:10:10.333Z,101739.03
2019-05-30T01:12:40.434Z,101735.30
2019-05-30T01:15:11.264Z,101737.44
2019-05-30T01:17:41.544Z,101735.16
2019-05-30T01:20:14.012Z,101737.88
2019-05-30T01:22:44.535Z,101737.52
2019-05-30T01:25:14.945Z,101733.66
2019-05-30T01:27:45.203Z,101733.42
2019-05-30T01:30:17.446Z,101735.42
2019-05-30T01:32:47.690Z,101731.41
2019-05-30T01:35:24.479Z,101729.81
2019-05-30T01:37:54.991Z,101732.67
2019-05-30T01:40:25.155Z,101734.03
2019-05-30T01:42:55.151Z,101731.12
2019-05-30T01:45:25.347Z,101741.28
2019-05-30T01:47:55.450Z,101730.75
2019-05-30T01:50:25.841Z,101735.77
2019-05-30T01:52:56.172Z,101736.97
2019-05-30T01:55:28.804Z,101734.81
2019-05-30T01:58:01.401Z,101733.58
2019-05-30T02:00:41.650Z,101739.53
2019-05-30T02:03:16.674Z,101738.60
2019-05-30T02:05:50.899Z,101732.52
2019-05-30T02:08:21.350Z,101736.24
2019-05-30T02:10:51.444Z,101737.88
2019-05-30T02:13:21.569Z,101729.06
2019-05-30T02:15:51.934Z,101730.06
2019-05-30T02:18:22.136Z,101732.06
2019-05-30T02:20:52.328Z,101728.41
2019-05-30T02:23:22.345Z,101729.17
2019-05-30T02:25:52.461Z,101729.53
2019-05-30T02:28:22.672Z,101737.34
2019-05-30T02:30:52.853Z,101734.11
2019-05-30T02:33:22.934Z,101728.37
2019-05-30T02:35:52.941Z,101729.59
2019-05-30T02:38:22.934Z,101738.33
2019-05-30T02:40:53.117Z,101741.45
2019-05-30T02:43:23.102Z,101737.36
2019-05-30T02:45:53.390Z,101743.91
2019-05-30T02:48:23.416Z,101743.05
2019-05-30T02:50:53.489Z,101748.62
2019-05-30T02:53:23.691Z,101751.34
2019-05-30T02:55:53.978Z,101760.50
2019-05-30T02:58:24.130Z,101755.66
2019-05-30T03:00:56.038Z,101758.52
2019-05-30T03:03:26.208Z,101761.50
2019-05-30T03:05:57.036Z,101756.72
2019-05-30T03:08:27.558Z,101760.44
2019-05-30T03:10:57.807Z,101759.44
2019-05-30T03:13:28.194Z,101760.31
2019-05-30T03:15:58.678Z,101766.13
2019-05-30T03:18:29.135Z,101759.98
2019-05-30T03:20:59.770Z,101764.50
2019-05-30T03:23:32.753Z,101763.14
2019-05-30T03:26:04.891Z,101768.45
2019-05-30T03:28:35.708Z,101774.90
2019-05-30T03:31:14.679Z,101772.91
2019-05-30T03:33:42.436Z,101776.93
2019-05-30T03:36:23.878Z,101772.84
2019-05-30T03:38:43.829Z,101776.37
2019-05-30T03:41:14.278Z,101771.36
2019-05-30T03:43:44.533Z,101778.07
2019-05-30T03:46:21.429Z,101780.16
2019-05-30T03:48:54.358Z,101779.16
2019-05-30T03:51:26.827Z,101782.48
2019-05-30T03:53:56.999Z,101773.01
2019-05-30T03:56:37.153Z,101774.83
2019-05-30T03:59:26.618Z,101783.07
2019-05-30T04:02:18.975Z,101775.71
2019-05-30T04:04:55.906Z,101787.47
2019-05-30T04:07:27.945Z,101780.03
2019-05-30T04:10:00.487Z,101785.32
2019-05-30T04:12:49.957Z,101783.09
2019-05-30T04:15:32.903Z,101786.10
2019-05-30T04:18:02.726Z,101790.95
2019-05-30T04:20:32.787Z,101787.41
2019-05-30T04:23:02.579Z,101789.77
2019-05-30T04:25:32.436Z,101791.25
2019-05-30T04:28:03.217Z,101790.66
2019-05-30T04:30:33.030Z,101785.03
2019-05-30T04:33:16.798Z,101788.28
2019-05-30T04:35:34.360Z,101792.13
2019-05-30T04:38:04.195Z,101795.70
2019-05-30T04:40:34.048Z,101790.70
2019-05-30T04:43:03.940Z,101792.82
2019-05-30T04:45:33.774Z,101796.02
2019-05-30T04:48:03.767Z,101788.78
2019-05-30T04:50:33.595Z,101789.12
2019-05-30T04:53:03.469Z,101790.22
2019-05-30T04:55:33.300Z,101793.28
2019-05-30T04:58:03.224Z,101789.14
2019-05-30T05:00:33.078Z,101789.30
2019-05-30T05:03:03.453Z,101788.73
2019-05-30T05:05:33.361Z,101794.86
2019-05-30T05:08:03.177Z,101798.05
2019-05-30T05:10:33.381Z,101792.51
2019-05-30T05:13:03.161Z,101782.48
2019-05-30T05:15:33.031Z,101786.65
2019-05-30T05:18:02.913Z,101783.60
2019-05-30T05:20:36.061Z,101786.59
2019-05-30T05:23:04.348Z,101789.20
2019-05-30T05:25:34.312Z,101782.80
2019-05-30T05:28:04.227Z,101786.14
2019-05-30T05:30:34.080Z,101787.71
2019-05-30T05:33:03.992Z,101781.28
2019-05-30T05:35:33.915Z,101783.07
2019-05-30T05:38:03.736Z,101784.79
2019-05-30T05:40:33.654Z,101787.91
2019-05-30T05:43:03.681Z,101785.53
2019-05-30T05:45:33.543Z,101794.14
2019-05-30T05:48:03.495Z,101793.14
2019-05-30T05:50:33.342Z,101792.43
2019-05-30T05:53:03.359Z,101791.04
2019-05-30T05:55:33.257Z,101786.11
2019-05-30T05:58:04.351Z,101788.86
2019-05-30T06:00:34.213Z,101790.73
2019-05-30T06:03:04.154Z,101789.39
2019-05-30T06:05:34.113Z,101789.39
2019-05-30T06:08:03.976Z,101795.11
2019-05-30T06:10:33.855Z,101786.67
2019-05-30T06:13:03.695Z,101788.05
2019-05-30T06:15:33.579Z,101791.45
2019-05-30T06:18:03.494Z,101784.77
2019-05-30T06:20:33.446Z,101787.66
2019-05-30T06:23:03.321Z,101793.67
2019-05-30T06:25:33.255Z,101801.88
2019-05-30T06:28:03.256Z,101798.96
2019-05-30T06:30:33.428Z,101799.45
2019-05-30T06:33:03.388Z,101796.55
2019-05-30T06:35:36.330Z,101794.33
2019-05-30T06:38:06.267Z,101797.55
2019-05-30T06:40:37.357Z,101794.62
2019-05-30T06:43:07.350Z,101789.58
2019-05-30T06:45:37.398Z,101794.31
2019-05-30T06:48:07.619Z,101792.22
2019-05-30T06:50:37.575Z,101791.48
2019-05-30T06:53:07.663Z,101789.13
2019-05-30T06:55:37.665Z,101787.70
2019-05-30T06:58:07.867Z,101786.79
2019-05-30T07:00:38.143Z,101783.69
2019-05-30T07:03:10.137Z,101786.67
2019-05-30T07:05:40.749Z,101789.66
2019-05-30T07:08:10.741Z,101784.78
2019-05-30T07:10:40.918Z,101783.63
2019-05-30T07:13:11.062Z,101777.51
2019-05-30T07:15:41.138Z,101783.41
2019-05-30T07:18:11.103Z,101775.56
2019-05-30T07:20:41.188Z,101772.23
2019-05-30T07:23:15.180Z,101769.03
2019-05-30T07:25:45.038Z,101775.25
2019-05-30T07:28:15.099Z,101768.23
2019-05-30T07:30:45.267Z,101764.28
2019-05-30T07:33:16.386Z,101766.42
2019-05-30T07:35:46.866Z,101766.00
2019-05-30T07:38:16.878Z,101766.83
2019-05-30T07:40:46.997Z,101770.20
2019-05-30T07:43:18.415Z,101767.95
2019-05-30T07:45:57.702Z,101768.04
2019-05-30T07:48:20.248Z,101769.66
2019-05-30T07:50:50.269Z,101769.32
2019-05-30T07:53:20.486Z,101775.42
2019-05-30T07:55:56.764Z,101771.52
2019-05-30T07:58:29.074Z,101765.22
2019-05-30T08:00:59.340Z,101768.63
2019-05-30T08:03:31.150Z,101763.95
2019-05-30T08:06:01.108Z,101754.28
2019-05-30T08:08:31.849Z,101755.20
2019-05-30T08:11:09.259Z,101757.25
2019-05-30T08:13:35.265Z,101753.84
2019-05-30T08:16:05.308Z,101754.58
2019-05-30T08:18:35.829Z,101753.49
2019-05-30T08:21:06.127Z,101755.86
2019-05-30T08:23:36.424Z,101758.30
2019-05-30T08:26:06.822Z,101754.36
2019-05-30T08:28:38.983Z,101758.05
2019-05-30T08:31:09.599Z,101754.76
2019-05-30T08:33:39.798Z,101748.03
2019-05-30T08:36:15.766Z,101751.42
2019-05-30T08:38:48.101Z,101747.33
2019-05-30T08:41:17.392Z,101738.36
2019-05-30T08:43:47.306Z,101737.58
2019-05-30T08:46:17.142Z,101734.03
2019-05-30T08:48:47.064Z,101730.84
2019-05-30T08:51:16.866Z,101735.70
2019-05-30T08:53:46.703Z,101737.78
2019-05-30T08:56:16.678Z,101732.90
2019-05-30T08:58:46.536Z,101729.67
2019-05-30T09:01:16.509Z,101734.16
2019-05-30T09:03:46.382Z,101718.41
2019-05-30T09:06:16.239Z,101721.20
2019-05-30T09:08:46.393Z,101720.84
2019-05-30T09:11:16.243Z,101713.67
2019-05-30T09:13:46.762Z,101706.70
2019-05-30T09:16:16.803Z,101707.66
2019-05-30T09:18:47.476Z,101711.89
2019-05-30T09:21:17.677Z,101693.81
2019-05-30T09:23:48.040Z,101712.06
2019-05-30T09:26:18.247Z,101707.03
2019-05-30T09:28:48.407Z,101699.33
2019-05-30T09:31:18.326Z,101698.73
2019-05-30T09:33:51.028Z,101696.41
2019-05-30T09:36:20.984Z,101691.32
2019-05-30T09:38:50.832Z,101697.73
2019-05-30T09:41:20.682Z,101709.34
2019-05-30T09:43:50.503Z,101684.27
2019-05-30T09:46:22.016Z,101685.99
2019-05-30T09:48:52.591Z,101683.67
2019-05-30T09:51:23.492Z,101683.04
2019-05-30T09:53:54.096Z,101682.38
2019-05-30T09:56:24.510Z,101690.29
2019-05-30T09:59:04.564Z,101679.09
2019-05-30T10:01:36.903Z,101678.27
2019-05-30T10:04:09.498Z,101682.41
2019-05-30T10:06:42.097Z,101687.16
2019-05-30T10:09:16.695Z,101671.59
2019-05-30T10:11:51.329Z,101680.30
2019-05-30T10:14:21.898Z,101675.72
2019-05-30T10:16:57.771Z,101677.05
2019-05-30T10:19:31.279Z,101670.33
2019-05-30T10:22:01.859Z,101668.14
2019-05-30T10:24:32.623Z,101666.17
2019-05-30T10:27:02.895Z,101649.78
2019-05-30T10:29:33.414Z,101665.22
2019-05-30T10:32:03.739Z,101661.09
2019-05-30T10:34:33.955Z,101646.39
2019-05-30T10:37:09.321Z,101641.91
2019-05-30T10:39:41.103Z,101647.08
2019-05-30T10:42:11.542Z,101643.92
2019-05-30T10:44:42.533Z,101639.46
2019-05-30T10:47:13.022Z,101639.34
2019-05-30T10:49:45.303Z,101635.78
2019-05-30T10:52:15.955Z,101635.89
2019-05-30T10:54:47.836Z,101629.75
2019-05-30T10:57:19.380Z,101634.58
2019-05-30T10:59:50.858Z,101627.61
2019-05-30T11:02:21.534Z,101610.89
2019-05-30T11:04:53.025Z,101618.89
2019-05-30T11:07:52.823Z,101619.91
2019-05-30T11:10:15.282Z,101612.81
2019-05-30T11:12:46.632Z,101604.80
2019-05-30T11:15:18.544Z,101607.88
2019-05-30T11:17:50.487Z,101617.83
2019-05-30T11:20:22.723Z,101599.44
2019-05-30T11:22:54.285Z,101594.30
2019-05-30T11:25:24.698Z,101592.89
2019-05-30T11:27:55.095Z,101587.53
2019-05-30T11:30:26.364Z,101602.73
2019-05-30T11:32:57.305Z,101598.25
2019-05-30T11:35:28.068Z,101589.69
2019-05-30T11:38:01.716Z,101577.39
2019-05-30T11:40:33.399Z,101562.58
2019-05-30T11:43:04.535Z,101562.06
2019-05-30T11:45:35.613Z,101560.25
2019-05-30T11:48:06.235Z,101556.35
2019-05-30T11:50:38.077Z,101562.46
2019-05-30T11:53:08.542Z,101555.02
2019-05-30T11:56:07.211Z,101556.23
2019-05-30T11:58:37.727Z,101562.45
2019-05-30T12:01:08.343Z,101558.06
2019-05-30T12:03:42.730Z,101559.21
2019-05-30T12:06:13.185Z,101553.48
2019-05-30T12:08:44.052Z,101544.84
2019-05-30T12:11:14.279Z,101553.64
2019-05-30T12:13:44.977Z,101548.92
2019-05-30T12:16:16.144Z,101540.45
2019-05-30T12:18:47.075Z,101538.48
2019-05-30T12:21:19.693Z,101536.19
2019-05-30T12:26:39.856Z,101527.92
2019-05-30T12:29:10.403Z,101520.41
2019-05-30T12:31:43.528Z,101537.59
2019-05-30T12:34:18.089Z,101528.19
2019-05-30T12:36:56.488Z,101524.69
2019-05-30T12:39:31.268Z,101525.58
2019-05-30T12:42:05.770Z,101522.52
2019-05-30T12:44:40.194Z,101523.77
2019-05-30T12:47:10.272Z,101514.48
2019-05-30T12:49:40.690Z,101518.05
2019-05-30T12:52:10.775Z,101513.63
2019-05-30T12:54:41.605Z,101508.53
2019-05-30T12:57:11.888Z,101518.88
2019-05-30T12:59:42.105Z,101517.03
2019-05-30T13:02:12.371Z,101504.08
2019-05-30T13:04:45.349Z,101506.47
2019-05-30T13:07:15.953Z,101500.91
2019-05-30T13:09:46.597Z,101500.44
2019-05-30T13:12:16.767Z,101499.17
2019-05-30T13:14:46.971Z,101507.74
2019-05-30T13:17:16.986Z,101499.17
2019-05-30T13:19:46.998Z,101511.37
2019-05-30T13:22:17.160Z,101495.89
2019-05-30T13:24:47.208Z,101502.44
2019-05-30T13:27:17.686Z,101502.14
2019-05-30T13:29:47.754Z,101496.11
2019-05-30T13:32:17.972Z,101487.84
2019-05-30T13:34:48.421Z,101485.89
2019-05-30T13:37:18.576Z,101495.20
2019-05-30T13:39:48.626Z,101494.55
2019-05-30T13:42:18.921Z,101486.09
2019-05-30T13:44:49.241Z,101475.98
2019-05-30T13:47:19.500Z,101474.23
2019-05-30T13:49:49.723Z,101471.83
2019-05-30T13:52:19.785Z,101462.63
2019-05-30T13:54:50.129Z,101465.50
2019-05-30T13:57:20.126Z,101481.97
2019-05-30T13:59:54.729Z,101485.78
2019-05-30T14:02:24.867Z,101479.74
2019-05-30T14:04:55.151Z,101475.23
2019-05-30T14:07:25.433Z,101473.76
2019-05-30T14:09:55.536Z,101473.93
2019-05-30T14:12:25.497Z,101474.08
2019-05-30T14:14:55.626Z,101465.52
2019-05-30T14:17:25.762Z,101466.88
2019-05-30T14:19:55.787Z,101462.03
2019-05-30T14:22:25.904Z,101468.65
2019-05-30T14:24:56.030Z,101477.97
2019-05-30T14:27:26.137Z,101468.20
2019-05-30T14:29:56.223Z,101474.64
2019-05-30T14:32:26.215Z,101465.33
2019-05-30T14:34:56.238Z,101459.78
2019-05-30T14:37:26.494Z,101456.05
2019-05-30T14:39:56.517Z,101457.04
2019-05-30T14:42:26.753Z,101473.31
2019-05-30T14:44:56.897Z,101462.50
2019-05-30T14:47:26.939Z,101456.81
2019-05-30T14:49:57.160Z,101459.02
2019-05-30T14:52:27.379Z,101448.62
2019-05-30T14:54:57.533Z,101445.76
2019-05-30T14:57:27.754Z,101461.58
2019-05-30T14:59:58.071Z,101458.34
2019-05-30T15:02:29.353Z,101456.48
2019-05-30T15:04:59.631Z,101449.45
2019-05-30T15:07:29.761Z,101447.17
2019-05-30T15:09:59.985Z,101446.97
2019-05-30T15:12:30.104Z,101448.13
2019-05-30T15:15:00.517Z,101447.97
2019-05-30T15:17:39.785Z,101438.65
2019-05-30T15:20:12.226Z,101438.61
2019-05-30T15:22:43.741Z,101435.22
2019-05-30T15:25:16.458Z,101438.36
2019-05-30T15:27:46.672Z,101429.98
2019-05-30T15:30:17.177Z,101443.44
2019-05-30T15:32:47.294Z,101429.55
2019-05-30T15:35:19.219Z,101446.39
2019-05-30T15:37:49.657Z,101429.31
2019-05-30T15:40:21.808Z,101437.59
2019-05-30T15:42:53.177Z,101440.68
2019-05-30T15:45:24.068Z,101438.90
2019-05-30T15:47:54.103Z,101439.68
2019-05-30T15:50:25.331Z,101433.59
2019-05-30T15:52:56.570Z,101432.52
2019-05-30T15:55:27.021Z,101439.39
2019-05-30T15:57:57.270Z,101441.36
2019-05-30T16:00:28.935Z,101424.38
2019-05-30T16:02:59.533Z,101431.50
2019-05-30T16:05:29.649Z,101428.19
2019-05-30T16:08:00.321Z,101425.61
2019-05-30T16:10:30.510Z,101422.73
2019-05-30T16:13:02.093Z,101432.83
2019-05-30T16:15:32.352Z,101425.22
2019-05-30T16:18:02.671Z,101433.49
2019-05-30T16:20:33.341Z,101434.31
2019-05-30T16:23:03.534Z,101431.42
2019-05-30T16:25:33.887Z,101431.49
2019-05-30T16:28:04.850Z,101438.09
2019-05-30T16:30:35.492Z,101430.27
2019-05-30T16:33:05.731Z,101430.27
2019-05-30T16:35:35.970Z,101433.59
2019-05-30T16:38:06.040Z,101435.09
2019-05-30T16:40:37.225Z,101432.28
2019-05-30T16:43:07.226Z,101427.95
2019-05-30T16:45:37.247Z,101434.29
2019-05-30T16:48:07.355Z,101432.39
2019-05-30T16:50:37.507Z,101430.70
2019-05-30T16:53:07.597Z,101436.28
2019-05-30T16:55:37.790Z,101431.30
2019-05-30T16:58:08.101Z,101424.38
2019-05-30T17:00:38.630Z,101427.85
2019-05-30T17:03:09.087Z,101421.92
2019-05-30T17:05:39.340Z,101427.64
2019-05-30T17:08:09.530Z,101436.80
2019-05-30T17:10:42.246Z,101428.31
2019-05-30T17:13:12.541Z,101434.96
2019-05-30T17:15:43.543Z,101427.65
2019-05-30T17:18:13.649Z,101455.67
2019-05-30T17:20:43.767Z,101441.22
2019-05-30T17:23:14.314Z,101444.15
2019-05-30T17:25:46.675Z,101436.72
2019-05-30T17:28:18.032Z,101443.00
2019-05-30T17:30:48.470Z,101453.30
2019-05-30T17:33:21.529Z,101451.30
2019-05-30T17:35:53.685Z,101447.03
2019-05-30T17:38:24.596Z,101447.81
2019-05-30T17:40:54.773Z,101460.31
2019-05-30T17:43:25.095Z,101454.88
2019-05-30T17:45:55.355Z,101458.39
2019-05-30T17:48:25.874Z,101458.65
2019-05-30T17:50:56.376Z,101463.00
2019-05-30T17:53:27.889Z,101455.60
2019-05-30T17:55:59.506Z,101456.16
2019-05-30T17:58:30.242Z,101456.94
2019-05-30T18:01:01.220Z,101463.30
2019-05-30T18:03:32.452Z,101461.42
2019-05-30T18:06:02.803Z,101465.20
2019-05-30T18:08:41.060Z,101465.89
2019-05-30T18:11:11.682Z,101468.59
2019-05-30T18:13:41.892Z,101461.23
2019-05-30T18:16:12.166Z,101463.50
2019-05-30T18:18:42.366Z,101467.20
2019-05-30T18:21:12.634Z,101480.44
2019-05-30T18:23:44.885Z,101477.94
2019-05-30T18:26:15.254Z,101479.00
2019-05-30T18:28:45.783Z,101476.59
2019-05-30T18:31:16.216Z,101481.95
2019-05-30T18:33:46.308Z,101482.51
2019-05-30T18:36:16.386Z,101494.03
2019-05-30T18:38:46.563Z,101489.88
2019-05-30T18:41:19.705Z,101488.58
2019-05-30T18:43:49.974Z,101486.34
2019-05-30T18:46:20.399Z,101493.05
2019-05-30T18:48:50.609Z,101484.98
2019-05-30T18:51:20.942Z,101491.17
2019-05-30T18:53:50.977Z,101480.19
2019-05-30T18:56:21.086Z,101468.48
2019-05-30T18:58:51.377Z,101483.20
2019-05-30T19:01:21.562Z,101482.97
2019-05-30T19:03:54.104Z,101489.37
2019-05-30T19:06:25.543Z,101493.30
2019-05-30T19:08:55.956Z,101495.02
2019-05-30T19:11:29.601Z,101495.03
2019-05-30T19:14:01.079Z,101501.95
2019-05-30T19:16:32.330Z,101503.40
2019-05-30T19:19:02.757Z,101506.62
2019-05-30T19:21:36.219Z,101511.39
2019-05-30T19:24:06.551Z,101506.49
2019-05-30T19:26:36.885Z,101514.27
2019-05-30T19:29:07.117Z,101514.27
2019-05-30T19:31:37.340Z,101515.34
2019-05-30T19:34:07.517Z,101520.47
2019-05-30T19:36:40.233Z,101526.73
2019-05-30T19:39:11.007Z,101520.03
2019-05-30T19:41:55.585Z,101522.34
2019-05-30T19:44:13.343Z,101532.48
2019-05-30T19:46:43.453Z,101532.48
2019-05-30T19:49:13.777Z,101528.66
2019-05-30T19:51:44.067Z,101531.52
2019-05-30T19:54:14.223Z,101534.60
2019-05-30T19:56:49.067Z,101538.02
2019-05-30T19:59:19.381Z,101534.81
2019-05-30T20:01:49.661Z,101539.16
2019-05-30T20:04:19.681Z,101537.78
2019-05-30T20:06:49.975Z,101539.61
2019-05-30T20:09:20.082Z,101536.51
2019-05-30T20:12:02.601Z,101542.13
2019-05-30T20:14:22.157Z,101544.36
2019-05-30T20:16:52.449Z,101537.52
2019-05-30T20:19:23.114Z,101529.20
2019-05-30T20:21:53.953Z,101532.28
2019-05-30T20:24:24.541Z,101531.95
2019-05-30T20:26:55.342Z,101534.06
2019-05-30T20:29:25.627Z,101527.66
2019-05-30T20:31:57.150Z,101524.28
2019-05-30T20:34:27.689Z,101520.86
2019-05-30T20:36:59.146Z,101522.42
2019-05-30T20:39:29.443Z,101520.13
2019-05-30T20:41:59.677Z,101525.66
2019-05-30T20:44:30.052Z,101524.97
2019-05-30T20:47:03.715Z,101524.28
2019-05-30T20:49:35.135Z,101522.70
2019-05-30T20:52:05.412Z,101524.38
2019-05-30T20:54:35.662Z,101527.73
2019-05-30T20:57:08.093Z,101533.03
2019-05-30T20:59:38.515Z,101530.19
2019-05-30T21:02:09.906Z,101531.02
2019-05-30T21:04:43.212Z,101535.77
2019-05-30T21:07:13.425Z,101538.17
2019-05-30T21:09:44.276Z,101542.78
2019-05-30T21:12:17.600Z,101545.22
2019-05-30T21:14:50.587Z,101546.40
2019-05-30T21:17:23.449Z,101554.69
2019-05-30T21:19:53.530Z,101552.22
2019-05-30T21:22:23.757Z,101546.23
2019-05-30T21:24:54.320Z,101555.77
2019-05-30T21:27:24.846Z,101557.25
2019-05-30T21:29:55.378Z,101551.78
2019-05-30T21:32:25.534Z,101553.06
2019-05-30T21:34:55.884Z,101549.95
2019-05-30T21:37:26.159Z,101556.59
2019-05-30T21:39:56.529Z,101557.25
2019-05-30T21:42:26.802Z,101556.04
2019-05-30T21:44:57.101Z,101549.52
2019-05-30T21:47:36.868Z,101551.77
2019-05-30T21:50:11.888Z,101552.62
2019-05-30T21:52:48.097Z,101553.14
2019-05-30T21:55:18.888Z,101546.89
2019-05-30T21:57:56.713Z,101544.48
2019-05-30T22:01:33.508Z,101547.64
2019-05-30T22:04:33.333Z,101545.53
2019-05-30T22:07:01.212Z,101546.20
2019-05-30T22:09:35.566Z,101543.59
2019-05-30T22:12:06.871Z,101541.31
2019-05-30T22:14:41.625Z,101537.22
2019-05-30T22:17:18.481Z,101545.78
2019-05-30T22:19:55.929Z,101539.93
2019-05-30T22:22:26.993Z,101546.81
2019-05-30T22:24:59.412Z,101540.16
2019-05-30T22:27:32.836Z,101547.02
2019-05-30T22:30:04.470Z,101554.11
2019-05-30T22:32:35.713Z,101550.41
2019-05-30T22:35:08.821Z,101557.87
2019-05-30T22:37:41.132Z,101560.34
2019-05-30T22:40:14.815Z,101557.01
2019-05-30T22:42:56.485Z,101537.20
2019-05-30T22:45:30.281Z,101544.25
2019-05-30T22:48:03.206Z,101548.13
2019-05-30T22:50:34.243Z,101544.41
2019-05-30T22:53:06.499Z,101539.68
2019-05-30T22:55:37.378Z,101543.65
2019-05-30T22:58:09.363Z,101535.69
2019-05-30T23:03:16.948Z,101538.45
2019-05-30T23:05:49.825Z,101534.38
2019-05-30T23:08:21.771Z,101532.41
2019-05-30T23:11:06.003Z,101540.16
2019-05-30T23:13:40.455Z,101537.98
2019-05-30T23:16:07.952Z,101546.50
2019-05-30T23:18:38.537Z,101548.87
2019-05-30T23:21:10.298Z,101547.55
2019-05-30T23:23:40.733Z,101556.37
2019-05-30T23:26:13.364Z,101555.18
2019-05-30T23:28:43.786Z,101556.45
2019-05-30T23:31:15.955Z,101558.27
2019-05-30T23:36:38.952Z,101561.45
2019-05-30T23:39:10.076Z,101563.31
2019-05-30T23:41:42.069Z,101562.13
2019-05-30T23:44:12.412Z,101566.66
2019-05-30T23:46:43.212Z,101561.66
2019-05-30T23:49:22.585Z,101556.97
2019-05-30T23:51:54.562Z,101562.24
2019-05-30T23:54:25.463Z,101555.95
2019-05-30T23:56:57.024Z,101551.80
2019-05-30T23:59:29.792Z,101547.75
